Modesto, California
Current Conditions -  °F | °C
As of 4:46 AM on Monday 22 Dec 2014 (Local Time) from KMOD Reporting Station
Haze Haze  
Wind Chill: 14°   Ceiling: 400
Heat Index: 14°   Visibility: 4mi
Dew Point: 13°   Wind: 7mph
Humidity: 93%   Direction: 330°NNW
Pressure: 30.23"   Gusts: NA
Location:  37.64°N, 120.99°W
Report Text: KMOD 221246Z AUTO 33006KT 4SM BR BKN004 OVC014 14/13 A3023 RMK AO2 T01440133
Loading
Personal Weather Stations






























Interactive Weather Map New forecast layout! Learn more

10-Day Weather Forecast

Advertisements
Track Severe Weather on mobile